Time;durP1;ratioP1;P1;durP2;ratioP2;P2;SDS_P1;SDS_P2;PMS_P1;PMS_P2;Temp;Humidity;BMP_temperature;BMP_pressure;BME280_temperature;BME280_humidity;BME280_pressure;Samples;Min_cycle;Max_cycle;Signal;HPM_P1;HPM_P2
2022/09/28 00:01:48;;;;;;;4.07;3.28;;;7.90;99.90;;;;;;4891954;29;20634;-83
2022/09/28 00:04:14;;;;;;;3.83;2.33;;;8.00;99.90;;;;;;4909141;29;20090;-84
2022/09/28 00:06:39;;;;;;;2.65;2.25;;;8.00;99.90;;;;;;4908601;28;20481;-85
2022/09/28 00:09:05;;;;;;;9.02;3.03;;;9.60;99.90;;;;;;4907294;29;20400;-82
2022/09/28 00:11:32;;;;;;;3.08;2.88;;;8.00;99.90;;;;;;4908865;28;20044;-83
2022/09/28 00:14:02;;;;;;;4.57;2.70;;;8.00;99.90;;;;;;4906973;29;20036;-83
2022/09/28 00:16:31;;;;;;;3.45;3.15;;;8.00;99.90;;;;;;4900319;28;20111;-83
2022/09/28 00:18:57;;;;;;;3.55;3.17;;;7.90;99.90;;;;;;4908635;28;20381;-83
2022/09/28 00:21:31;;;;;;;6.28;3.40;;;8.10;99.90;;;;;;4906892;28;20304;-83
2022/09/28 00:24:11;;;;;;;3.67;3.38;;;8.00;99.90;;;;;;4891721;29;20082;-84
2022/09/28 00:26:41;;;;;;;3.60;3.15;;;9.50;99.90;;;;;;4885462;29;20523;-83
2022/09/28 00:29:16;;;;;;;3.28;3.08;;;8.00;99.90;;;;;;4906876;28;20071;-83
2022/09/28 00:31:42;;;;;;;4.18;3.60;;;8.00;99.90;;;;;;4907211;28;20036;-83
2022/09/28 00:34:08;;;;;;;3.92;2.70;;;7.90;99.90;;;;;;4906812;28;20051;-83
2022/09/28 00:36:34;;;;;;;5.10;3.30;;;8.00;99.90;;;;;;4907626;29;20056;-83
2022/09/28 00:39:10;;;;;;;5.55;3.33;;;8.00;99.90;;;;;;4907411;28;20040;-83
2022/09/28 00:41:36;;;;;;;4.07;3.50;;;8.00;99.90;;;;;;4885923;29;20066;-84
2022/09/28 00:44:26;;;;;;;4.78;3.50;;;10.10;99.90;;;;;;4907335;29;20488;-84
2022/09/28 00:47:00;;;;;;;4.78;3.95;;;8.00;99.90;;;;;;4904225;28;20092;-85
2022/09/28 00:49:39;;;;;;;3.92;3.60;;;7.90;99.90;;;;;;4907674;29;20051;-83
2022/09/28 00:52:07;;;;;;;4.72;4.15;;;9.50;99.90;;;;;;4907194;28;20546;-83
2022/09/28 00:54:33;;;;;;;4.80;3.80;;;7.90;99.90;;;;;;4891382;29;20428;-84
2022/09/28 00:57:01;;;;;;;8.30;3.97;;;7.80;99.90;;;;;;4906557;28;20036;-82
2022/09/28 00:59:26;;;;;;;4.93;4.40;;;10.00;99.90;;;;;;4922802;29;20102;-83
2022/09/28 01:01:52;;;;;;;7.80;5.28;;;7.70;99.90;;;;;;4907632;29;20127;-84
2022/09/28 01:04:18;;;;;;;8.73;5.97;;;7.70;99.90;;;;;;4892033;28;20052;-82
2022/09/28 01:06:45;;;;;;;8.48;5.57;;;7.90;99.90;;;;;;4910410;29;20056;-83
2022/09/28 01:09:12;;;;;;;7.13;5.13;;;7.90;99.90;;;;;;4909729;28;20182;-83
2022/09/28 01:11:39;;;;;;;6.25;5.25;;;7.90;99.90;;;;;;4894669;28;20052;-83
2022/09/28 01:14:08;;;;;;;5.85;5.25;;;7.90;99.90;;;;;;4911786;28;20071;-83
2022/09/28 01:16:56;;;;;;;6.57;5.53;;;7.90;99.90;;;;;;4910930;29;20396;-83
2022/09/28 01:19:55;;;;;;;6.15;5.65;;;9.10;99.90;;;;;;4910257;29;20131;-84
2022/09/28 01:22:33;;;;;;;9.95;5.68;;;7.90;99.90;;;;;;4908775;29;20083;-82
2022/09/28 01:25:15;;;;;;;6.18;5.13;;;7.90;99.90;;;;;;4909430;28;20528;-85
2022/09/28 01:27:50;;;;;;;6.63;5.40;;;7.90;99.90;;;;;;4910097;29;20040;-84
2022/09/28 01:30:18;;;;;;;6.13;5.00;;;7.90;99.90;;;;;;4893593;28;20048;-83
2022/09/28 01:32:54;;;;;;;6.15;5.55;;;9.00;99.90;;;;;;4894418;29;20758;-84
2022/09/28 01:35:36;;;;;;;8.27;5.18;;;9.70;99.90;;;;;;4894188;29;20048;-84
2022/09/28 01:38:23;;;;;;;6.50;5.15;;;7.90;99.90;;;;;;4893407;28;20044;-83
2022/09/28 01:40:49;;;;;;;5.72;4.90;;;8.50;99.90;;;;;;4908632;28;20059;-84
2022/09/28 01:43:27;;;;;;;5.72;5.15;;;7.90;99.90;;;;;;4893965;28;20040;-83
2022/09/28 01:46:19;;;;;;;5.93;5.32;;;7.90;99.90;;;;;;4909444;29;20480;-83
2022/09/28 01:48:54;;;;;;;6.72;4.78;;;8.00;99.90;;;;;;4905014;28;20087;-83
2022/09/28 01:51:30;;;;;;;4.70;4.30;;;8.00;99.90;;;;;;4910314;28;20052;-83
2022/09/28 01:54:01;;;;;;;6.57;5.85;;;7.90;99.90;;;;;;4909650;29;20056;-83
2022/09/28 01:56:48;;;;;;;6.75;5.82;;;7.90;99.90;;;;;;4909448;29;20132;-83
2022/09/28 01:59:20;;;;;;;5.85;5.22;;;7.80;99.90;;;;;;4910393;28;20059;-83
2022/09/28 02:02:17;;;;;;;9.43;6.45;;;7.80;99.90;;;;;;4893647;28;20127;-83
2022/09/28 02:04:52;;;;;;;6.70;5.82;;;7.80;99.90;;;;;;4925641;28;20063;-83
2022/09/28 02:07:31;;;;;;;7.95;6.03;;;7.80;99.90;;;;;;4893614;29;20063;-82
2022/09/28 02:10:25;;;;;;;8.38;5.97;;;7.70;99.90;;;;;;4909481;29;20487;-82
2022/09/28 02:13:01;;;;;;;7.93;7.20;;;7.70;99.90;;;;;;4904864;28;20044;-83
2022/09/28 02:15:39;;;;;;;10.20;7.47;;;9.10;99.90;;;;;;4907881;29;20044;-83
2022/09/28 02:18:05;;;;;;;8.68;6.82;;;7.70;99.90;;;;;;4893535;28;20047;-84
2022/09/28 02:20:33;;;;;;;8.55;7.65;;;8.50;99.90;;;;;;4908253;29;20068;-83
2022/09/28 02:23:01;;;;;;;8.20;7.25;;;8.90;99.90;;;;;;4893661;29;20062;-82
2022/09/28 02:25:37;;;;;;;9.32;7.60;;;7.70;99.90;;;;;;4909126;29;20040;-83
2022/09/28 02:28:13;;;;;;;9.48;7.18;;;7.60;99.90;;;;;;4908253;29;20059;-83
2022/09/28 02:30:41;;;;;;;7.88;6.85;;;7.70;99.90;;;;;;4908960;29;20055;-83
2022/09/28 02:33:35;;;;;;;14.75;7.78;;;8.90;99.90;;;;;;4909098;28;20504;-84
2022/09/28 02:36:02;;;;;;;9.63;7.43;;;9.30;99.90;;;;;;4904636;28;20068;-83
2022/09/28 02:38:29;;;;;;;11.15;6.95;;;7.90;99.90;;;;;;4893141;29;20099;-82
2022/09/28 02:41:14;;;;;;;9.30;7.88;;;7.70;99.90;;;;;;4920939;28;20041;-83
2022/09/28 02:43:39;;;;;;;9.23;7.43;;;7.80;99.90;;;;;;4904210;28;20040;-83
2022/09/28 02:46:34;;;;;;;7.55;6.80;;;7.80;99.90;;;;;;4893697;29;20054;-83
2022/09/28 02:49:08;;;;;;;10.23;7.20;;;7.80;99.90;;;;;;4906937;28;20051;-83
2022/09/28 02:52:07;;;;;;;11.98;9.02;;;7.70;99.90;;;;;;4893023;29;20555;-83
2022/09/28 02:55:06;;;;;;;7.82;7.13;;;7.70;99.90;;;;;;4909707;28;20434;-85
2022/09/28 02:57:32;;;;;;;11.35;7.40;;;7.70;99.90;;;;;;4892785;29;20051;-83
2022/09/28 03:00:18;;;;;;;8.32;6.78;;;7.70;99.90;;;;;;4910175;29;20394;-83
2022/09/28 03:02:59;;;;;;;10.45;7.25;;;7.70;99.90;;;;;;4907503;28;20534;-85
2022/09/28 03:05:50;;;;;;;7.30;6.60;;;9.20;99.90;;;;;;4910114;29;20382;-84
2022/09/28 03:08:56;;;;;;;8.43;7.60;;;7.70;99.90;;;;;;4889959;29;20048;-83
2022/09/28 03:11:30;;;;;;;9.20;7.57;;;8.60;99.90;;;;;;4889536;29;20488;-84
2022/09/28 03:13:57;;;;;;;8.85;7.28;;;7.60;99.90;;;;;;4920078;29;20094;-83
2022/09/28 03:16:23;;;;;;;7.63;6.93;;;7.60;99.90;;;;;;4908395;29;20119;-83
2022/09/28 03:18:48;;;;;;;7.45;6.75;;;8.80;99.90;;;;;;4908605;28;20058;-84
2022/09/28 03:21:15;;;;;;;6.88;6.28;;;7.60;99.90;;;;;;4909059;29;20048;-84
2022/09/28 03:23:41;;;;;;;7.10;6.40;;;7.60;99.90;;;;;;4892259;29;20415;-85
2022/09/28 03:26:11;;;;;;;6.97;6.22;;;7.60;99.90;;;;;;4924151;28;20107;-82
2022/09/28 03:28:37;;;;;;;6.63;6.05;;;7.60;99.90;;;;;;4907798;28;20484;-83
2022/09/28 03:31:03;;;;;;;6.60;5.97;;;7.70;99.90;;;;;;4891826;29;20048;-83
2022/09/28 03:33:28;;;;;;;6.43;5.82;;;7.50;99.90;;;;;;4893140;28;20044;-85
2022/09/28 03:35:54;;;;;;;6.15;5.55;;;7.60;99.90;;;;;;4908871;28;20508;-83
2022/09/28 03:38:20;;;;;;;5.55;5.15;;;7.50;99.90;;;;;;4892027;29;20064;-86
2022/09/28 03:40:57;;;;;;;6.15;5.40;;;9.60;99.90;;;;;;4908103;29;20500;-84
2022/09/28 03:43:24;;;;;;;5.53;5.13;;;7.50;99.90;;;;;;4910992;29;20313;-84
2022/09/28 03:46:00;;;;;;;5.22;4.80;;;6.50;99.90;;;;;;4908067;29;20052;-82
2022/09/28 03:48:28;;;;;;;5.45;4.88;;;7.50;99.90;;;;;;4908091;28;20059;-82
2022/09/28 03:50:55;;;;;;;6.72;4.97;;;7.40;99.90;;;;;;4907397;29;20052;-82
2022/09/28 03:53:21;;;;;;;12.32;6.18;;;7.40;99.90;;;;;;4908468;28;20519;-84
2022/09/28 03:55:52;;;;;;;5.90;5.38;;;7.40;99.90;;;;;;4908606;29;20056;-82
2022/09/28 03:58:19;;;;;;;4.90;4.45;;;7.40;99.90;;;;;;4892325;28;20439;-83
2022/09/28 04:00:45;;;;;;;4.88;4.47;;;9.00;99.90;;;;;;4909422;28;20059;-84
2022/09/28 04:03:10;;;;;;;7.32;4.82;;;8.80;99.90;;;;;;4892291;28;20484;-83
2022/09/28 04:05:36;;;;;;;5.03;4.63;;;7.30;99.90;;;;;;4907621;28;20055;-83
2022/09/28 04:08:01;;;;;;;4.30;4.00;;;7.50;99.90;;;;;;4892197;29;20102;-82
2022/09/28 04:10:27;;;;;;;5.50;4.45;;;7.20;99.90;;;;;;4907831;28;20059;-82
2022/09/28 04:12:54;;;;;;;5.97;5.38;;;7.10;99.90;;;;;;4892136;29;20048;-83
2022/09/28 04:15:20;;;;;;;4.20;3.53;;;7.20;99.90;;;;;;4893315;29;20119;-82
2022/09/28 04:17:47;;;;;;;4.32;3.95;;;8.10;99.90;;;;;;4892246;28;20131;-82
2022/09/28 04:20:13;;;;;;;5.60;3.90;;;7.00;99.90;;;;;;4906899;28;20547;-83
2022/09/28 04:22:39;;;;;;;6.38;4.00;;;7.10;99.90;;;;;;4908003;28;20171;-82
2022/09/28 04:25:05;;;;;;;3.92;3.63;;;7.30;99.90;;;;;;4891971;29;20139;-82
2022/09/28 04:30:18;;;;;;;3.83;3.63;;;7.20;99.90;;;;;;4909041;28;20081;-82
2022/09/28 04:32:46;;;;;;;4.38;3.90;;;8.10;99.90;;;;;;4892329;29;20067;-82
2022/09/28 04:35:12;;;;;;;4.25;3.90;;;7.00;99.90;;;;;;4908448;28;20040;-81
2022/09/28 04:37:38;;;;;;;4.25;3.95;;;7.00;99.90;;;;;;4907880;28;20067;-84
2022/09/28 04:40:04;;;;;;;4.30;4.00;;;8.40;99.90;;;;;;4894703;29;20044;-83
2022/09/28 04:42:30;;;;;;;4.50;4.10;;;5.90;99.90;;;;;;4895016;28;20407;-82
2022/09/28 04:44:57;;;;;;;4.07;3.88;;;7.20;99.90;;;;;;4912400;28;20056;-81
2022/09/28 04:47:26;;;;;;;4.50;4.20;;;6.90;99.90;;;;;;4911860;29;20504;-81
2022/09/28 04:49:54;;;;;;;4.55;4.20;;;8.50;99.90;;;;;;4911279;28;20063;-79
2022/09/28 04:52:20;;;;;;;4.80;4.38;;;7.00;99.90;;;;;;4911197;29;20036;-82
2022/09/28 04:54:45;;;;;;;4.88;4.35;;;7.00;99.90;;;;;;4910552;28;20055;-83
2022/09/28 04:57:12;;;;;;;4.40;4.00;;;8.40;99.90;;;;;;4912390;28;20061;-82
2022/09/28 04:59:37;;;;;;;4.28;3.97;;;6.90;99.90;;;;;;4895958;29;20557;-84
2022/09/28 05:02:06;;;;;;;5.53;5.03;;;8.40;99.90;;;;;;4910197;29;20033;-83
2022/09/28 05:04:32;;;;;;;4.63;4.22;;;6.90;99.90;;;;;;4912175;29;20063;-83
2022/09/28 05:06:58;;;;;;;6.18;4.60;;;8.50;99.90;;;;;;4910489;28;20048;-83
2022/09/28 05:09:23;;;;;;;6.10;5.28;;;6.90;99.90;;;;;;4910053;29;20052;-83
2022/09/28 05:11:51;;;;;;;5.38;4.97;;;8.80;99.90;;;;;;4911225;29;20056;-83
2022/09/28 05:14:20;;;;;;;6.57;5.20;;;7.00;99.90;;;;;;4911853;29;20087;-83
2022/09/28 05:16:48;;;;;;;5.72;5.22;;;7.00;99.90;;;;;;4915568;29;20108;-83
2022/09/28 05:19:13;;;;;;;5.43;5.03;;;7.00;99.90;;;;;;4908934;28;20503;-85
2022/09/28 05:21:45;;;;;;;5.60;5.15;;;7.00;99.90;;;;;;4910719;29;20060;-82
2022/09/28 05:24:11;;;;;;;4.78;4.38;;;7.00;99.90;;;;;;4911824;28;20059;-82
2022/09/28 05:26:37;;;;;;;5.47;4.90;;;7.00;99.90;;;;;;4895134;29;20048;-85
2022/09/28 05:29:03;;;;;;;8.65;5.20;;;7.10;99.90;;;;;;4910888;29;20135;-85
2022/09/28 05:31:29;;;;;;;21.45;15.95;;;7.10;99.90;;;;;;4910495;29;20032;-84
2022/09/28 05:33:54;;;;;;;6.22;5.72;;;7.10;99.90;;;;;;4910971;29;20040;-83
2022/09/28 05:36:21;;;;;;;5.72;5.22;;;7.10;99.90;;;;;;4911510;28;20091;-82
2022/09/28 05:38:46;;;;;;;6.40;5.53;;;7.10;99.90;;;;;;4909840;29;20044;-84
2022/09/28 05:41:12;;;;;;;14.10;5.10;;;7.10;99.90;;;;;;4894839;29;20060;-83
2022/09/28 05:43:38;;;;;;;6.53;5.78;;;8.40;99.90;;;;;;4909609;29;20455;-83
2022/09/28 05:46:04;;;;;;;7.30;5.13;;;7.10;99.90;;;;;;4894405;29;20052;-83
2022/09/28 05:48:33;;;;;;;5.88;5.22;;;7.10;99.90;;;;;;4909994;28;20072;-83
2022/09/28 05:50:58;;;;;;;6.82;6.13;;;7.10;99.90;;;;;;4893471;29;20546;-83
2022/09/28 05:53:24;;;;;;;9.65;8.23;;;7.10;99.90;;;;;;4894492;29;20052;-83
2022/09/28 05:55:50;;;;;;;6.05;5.55;;;7.10;99.90;;;;;;4910620;29;20044;-83
2022/09/28 05:58:16;;;;;;;7.78;6.40;;;6.80;99.90;;;;;;4908828;28;20113;-82
2022/09/28 06:00:44;;;;;;;6.32;5.75;;;7.10;99.90;;;;;;4911246;28;20040;-85
2022/09/28 06:03:12;;;;;;;6.30;5.70;;;7.10;99.90;;;;;;4909816;29;20407;-83
2022/09/28 06:05:38;;;;;;;6.30;5.80;;;7.10;99.90;;;;;;4893371;29;20487;-83
2022/09/28 06:08:07;;;;;;;7.68;6.63;;;6.90;99.90;;;;;;4909536;29;20051;-83
2022/09/28 06:10:33;;;;;;;6.68;6.15;;;8.70;99.90;;;;;;4911510;28;20044;-85
2022/09/28 06:12:59;;;;;;;6.72;6.13;;;7.10;99.90;;;;;;4910576;28;20040;-84
2022/09/28 06:15:30;;;;;;;10.82;7.47;;;7.10;99.90;;;;;;4911144;29;20083;-83
2022/09/28 06:18:02;;;;;;;7.40;6.60;;;7.10;99.90;;;;;;4902934;28;20079;-84
2022/09/28 06:20:31;;;;;;;6.88;6.28;;;7.20;99.90;;;;;;4908530;29;20123;-84
2022/09/28 06:22:57;;;;;;;6.63;6.13;;;7.20;99.90;;;;;;4909530;29;20044;-83
2022/09/28 06:25:24;;;;;;;7.75;6.95;;;7.10;99.90;;;;;;4910909;29;20086;-83
2022/09/28 06:27:55;;;;;;;7.18;6.55;;;7.20;99.90;;;;;;4893042;29;20082;-84
2022/09/28 06:30:22;;;;;;;7.70;7.10;;;8.30;99.90;;;;;;4909501;29;20048;-84
2022/09/28 06:32:50;;;;;;;10.07;8.20;;;7.10;99.90;;;;;;4892997;28;20531;-83
2022/09/28 06:35:16;;;;;;;9.38;7.90;;;7.20;99.90;;;;;;4909469;29;20512;-83
2022/09/28 06:37:43;;;;;;;11.13;9.30;;;7.30;99.90;;;;;;4910482;28;20040;-83
2022/09/28 06:40:09;;;;;;;13.73;8.90;;;7.10;99.90;;;;;;4892856;29;20479;-83
2022/09/28 06:42:35;;;;;;;12.73;10.00;;;7.10;99.90;;;;;;4909240;29;20048;-83
2022/09/28 06:45:01;;;;;;;10.18;7.60;;;7.20;99.90;;;;;;4909322;29;20131;-83
2022/09/28 06:47:27;;;;;;;9.40;7.65;;;7.10;99.90;;;;;;4908261;29;20040;-83
2022/09/28 06:49:54;;;;;;;8.85;7.57;;;8.60;99.90;;;;;;4908708;28;20044;-82
2022/09/28 06:52:20;;;;;;;8.70;7.88;;;7.20;99.90;;;;;;4910696;29;20091;-82
2022/09/28 06:54:45;;;;;;;8.07;7.38;;;7.20;99.90;;;;;;4924303;28;20051;-81
2022/09/28 06:57:11;;;;;;;11.93;7.82;;;7.20;99.90;;;;;;4908712;29;20183;-83
2022/09/28 06:59:37;;;;;;;8.80;7.88;;;7.20;99.90;;;;;;4910171;29;20036;-81
2022/09/28 07:02:03;;;;;;;9.73;8.00;;;7.30;99.90;;;;;;4909074;28;20063;-81
2022/09/28 07:04:30;;;;;;;9.45;8.63;;;8.50;99.90;;;;;;4893122;29;20040;-81
2022/09/28 07:06:56;;;;;;;28.40;24.88;;;7.20;99.90;;;;;;4909783;29;20036;-81
2022/09/28 07:09:21;;;;;;;11.07;10.02;;;7.30;99.90;;;;;;4908464;29;20044;-83
2022/09/28 07:11:51;;;;;;;11.38;10.27;;;7.30;99.90;;;;;;4912079;28;20202;-82
2022/09/28 07:14:19;;;;;;;10.48;9.52;;;7.30;99.90;;;;;;4908763;29;20377;-83
2022/09/28 07:16:47;;;;;;;8.77;7.97;;;7.60;99.90;;;;;;4892501;29;20488;-82
2022/09/28 07:19:15;;;;;;;10.98;8.68;;;7.30;99.90;;;;;;4893062;29;20044;-83
2022/09/28 07:21:40;;;;;;;9.35;8.48;;;7.30;99.90;;;;;;4908987;29;20052;-80
2022/09/28 07:24:06;;;;;;;10.68;9.32;;;7.40;99.90;;;;;;4892200;29;20427;-82
2022/09/28 07:26:32;;;;;;;11.82;10.45;;;7.50;99.90;;;;;;4893229;29;20071;-81
2022/09/28 07:28:58;;;;;;;12.05;10.25;;;7.60;99.90;;;;;;4907608;29;20458;-80
2022/09/28 07:31:24;;;;;;;12.75;9.80;;;7.60;99.90;;;;;;4908341;28;20458;-81
2022/09/28 07:33:50;;;;;;;10.75;9.32;;;7.70;99.90;;;;;;4910002;29;20110;-81
2022/09/28 07:36:16;;;;;;;10.18;8.82;;;7.70;99.90;;;;;;4909312;29;20052;-80
2022/09/28 07:38:42;;;;;;;9.73;8.73;;;8.10;99.90;;;;;;4909772;29;20333;-80
2022/09/28 07:41:11;;;;;;;11.93;8.38;;;7.90;99.90;;;;;;4908287;29;20048;-82
2022/09/28 07:43:38;;;;;;;9.70;8.55;;;7.90;99.90;;;;;;4891952;29;20054;-82
2022/09/28 07:46:10;;;;;;;12.63;9.07;;;8.00;99.90;;;;;;4892880;29;20392;-81
2022/09/28 07:48:42;;;;;;;16.05;8.57;;;8.10;99.90;;;;;;4908810;28;20044;-82
2022/09/28 07:51:08;;;;;;;10.68;8.20;;;8.10;99.90;;;;;;4919470;29;20062;-82
2022/09/28 07:53:37;;;;;;;12.00;8.23;;;8.10;99.90;;;;;;4909845;28;20040;-81
2022/09/28 07:56:07;;;;;;;9.48;8.13;;;8.30;99.90;;;;;;4902788;29;20115;-81
2022/09/28 07:58:38;;;;;;;9.90;7.88;;;8.30;99.90;;;;;;4909139;29;20051;-82
2022/09/28 08:01:09;;;;;;;21.88;17.58;;;8.40;99.90;;;;;;4902228;29;20032;-82
2022/09/28 08:03:35;;;;;;;11.30;8.88;;;8.40;99.90;;;;;;4892177;28;20036;-81
2022/09/28 08:06:05;;;;;;;14.70;8.02;;;8.50;99.90;;;;;;4908793;29;20123;-81
2022/09/28 08:08:33;;;;;;;9.38;7.07;;;8.60;99.90;;;;;;4892272;29;20066;-81
2022/09/28 08:10:58;;;;;;;9.50;8.43;;;8.60;99.90;;;;;;4892445;28;20040;-81
2022/09/28 08:13:24;;;;;;;8.73;7.93;;;8.70;99.90;;;;;;4891620;29;20048;-82
2022/09/28 08:15:51;;;;;;;9.23;7.32;;;8.80;99.90;;;;;;4895756;29;20115;-81
2022/09/28 08:18:17;;;;;;;8.80;7.88;;;8.80;99.90;;;;;;4911508;29;20048;-81
2022/09/28 08:23:27;;;;;;;8.23;6.03;;;9.60;99.90;;;;;;4911054;29;20139;-82
2022/09/28 08:25:53;;;;;;;6.25;5.70;;;9.00;99.90;;;;;;4910881;29;20119;-81
2022/09/28 08:28:20;;;;;;;6.22;5.70;;;9.10;99.90;;;;;;4895696;28;20036;-81
2022/09/28 08:30:46;;;;;;;12.10;6.75;;;9.10;99.90;;;;;;4912220;28;20131;-80
2022/09/28 08:33:13;;;;;;;7.07;5.95;;;10.80;99.90;;;;;;4910589;29;20333;-81
2022/09/28 08:35:42;;;;;;;9.55;6.22;;;9.30;99.90;;;;;;4911429;29;20036;-82
2022/09/28 08:38:09;;;;;;;6.28;5.68;;;9.30;99.90;;;;;;4906413;28;20122;-82
2022/09/28 08:41:09;;;;;;;6.65;4.65;;;9.30;99.90;;;;;;4910043;29;20037;-81
2022/09/28 08:43:34;;;;;;;4.28;3.70;;;9.50;99.90;;;;;;4913081;28;20118;-81
2022/09/28 08:46:00;;;;;;;9.25;4.32;;;9.60;99.90;;;;;;4910508;29;20466;-81
2022/09/28 08:48:47;;;;;;;5.15;4.63;;;9.60;99.90;;;;;;4911252;28;20762;-81
2022/09/28 08:51:24;;;;;;;8.98;4.85;;;10.60;99.90;;;;;;4908688;28;20044;-81
2022/09/28 08:54:06;;;;;;;8.10;7.18;;;9.90;99.90;;;;;;4894561;28;20044;-81
2022/09/28 08:56:40;;;;;;;5.13;3.80;;;9.70;99.90;;;;;;4910707;29;20524;-81
2022/09/28 08:59:13;;;;;;;7.72;3.15;;;9.80;99.90;;;;;;4912142;28;20059;-81
2022/09/28 09:01:45;;;;;;;4.60;1.77;;;10.20;99.90;;;;;;4894326;29;20568;-82
2022/09/28 09:04:11;;;;;;;4.90;2.28;;;10.00;99.90;;;;;;4902859;28;20123;-81
2022/09/28 09:07:08;;;;;;;6.68;2.90;;;10.00;99.90;;;;;;4910467;28;20048;-81
2022/09/28 09:10:12;;;;;;;8.10;3.63;;;10.10;99.90;;;;;;4889654;28;20079;-81
2022/09/28 09:13:04;;;;;;;3.10;2.72;;;10.10;99.90;;;;;;4910453;29;20499;-81
2022/09/28 09:16:02;;;;;;;6.07;3.20;;;10.20;99.90;;;;;;4904674;28;20051;-81
2022/09/28 09:18:36;;;;;;;3.08;2.50;;;10.30;99.90;;;;;;4904866;29;20503;-81
2022/09/28 09:21:40;;;;;;;15.03;10.53;;;10.30;99.90;;;;;;4892000;29;20566;-82
2022/09/28 09:24:25;;;;;;;4.77;2.80;;;10.40;99.90;;;;;;4892859;29;20060;-82
2022/09/28 09:27:00;;;;;;;2.00;1.63;;;10.50;99.90;;;;;;4910029;28;20043;-82
2022/09/28 09:29:49;;;;;;;2.63;0.60;;;10.50;99.90;;;;;;4909977;29;20040;-82
2022/09/28 09:32:20;;;;;;;3.92;1.52;;;10.50;99.90;;;;;;4910166;28;20052;-82
2022/09/28 09:34:58;;;;;;;1.70;1.40;;;10.50;99.90;;;;;;4909813;29;20095;-82
2022/09/28 09:38:01;;;;;;;2.08;1.88;;;10.60;99.90;;;;;;4893348;28;20044;-81
2022/09/28 09:40:57;;;;;;;3.90;1.30;;;10.60;99.90;;;;;;4906322;28;20399;-82
2022/09/28 09:43:57;;;;;;;1.85;0.22;;;10.60;99.90;;;;;;4904997;28;20484;-82
2022/09/28 09:46:49;;;;;;;1.50;0.50;;;10.60;99.90;;;;;;4894734;29;20047;-82
2022/09/28 09:49:19;;;;;;;2.08;1.20;;;10.60;99.90;;;;;;4924053;29;20048;-81
2022/09/28 09:52:03;;;;;;;1.70;1.60;;;11.60;99.90;;;;;;4894150;29;20431;-81
2022/09/28 09:54:37;;;;;;;1.50;1.17;;;10.80;99.90;;;;;;4890009;28;20408;-82
2022/09/28 09:57:16;;;;;;;2.30;1.02;;;11.00;99.90;;;;;;4893328;28;20072;-81
2022/09/28 09:59:43;;;;;;;3.95;2.25;;;11.10;99.90;;;;;;4910685;28;20044;-81
2022/09/28 10:02:22;;;;;;;1.27;1.10;;;11.60;99.90;;;;;;4910443;28;20044;-81
2022/09/28 10:04:51;;;;;;;2.83;1.50;;;11.30;99.90;;;;;;4909754;28;20055;-81
2022/09/28 10:07:24;;;;;;;4.80;1.10;;;11.30;99.90;;;;;;4893797;29;20098;-82
2022/09/28 10:09:52;;;;;;;2.38;0.70;;;11.50;99.90;;;;;;4893372;28;20052;-82
2022/09/28 10:12:20;;;;;;;3.63;0.70;;;12.10;99.90;;;;;;4902450;29;20051;-81
2022/09/28 10:14:49;;;;;;;3.33;0.77;;;11.60;99.90;;;;;;4894190;29;20070;-82
2022/09/28 10:17:18;;;;;;;1.63;0.20;;;11.60;99.90;;;;;;4909164;29;20032;-83
2022/09/28 10:19:44;;;;;;;4.18;0.70;;;11.60;99.90;;;;;;4909187;28;20071;-82
2022/09/28 10:22:15;;;;;;;1.92;0.65;;;12.40;99.90;;;;;;4910619;28;20064;-82
2022/09/28 10:24:44;;;;;;;5.05;0.47;;;11.50;99.90;;;;;;4892771;29;20480;-81
2022/09/28 10:27:28;;;;;;;1.65;0.40;;;11.60;99.90;;;;;;4909438;28;20044;-83
2022/09/28 10:30:08;;;;;;;2.23;0.50;;;11.40;99.90;;;;;;4910682;29;20048;-82
2022/09/28 10:32:45;;;;;;;3.45;0.70;;;11.40;99.90;;;;;;4903553;28;20343;-82
2022/09/28 10:35:40;;;;;;;2.47;0.43;;;11.30;99.90;;;;;;4909264;29;20040;-82
2022/09/28 10:38:13;;;;;;;0.47;0.32;;;11.30;99.90;;;;;;4907568;29;20496;-83
2022/09/28 10:40:47;;;;;;;2.92;0.57;;;11.30;99.90;;;;;;4909327;29;20054;-82
2022/09/28 10:43:37;;;;;;;2.00;1.38;;;11.90;99.90;;;;;;4893434;29;20125;-83
2022/09/28 10:46:05;;;;;;;3.45;0.55;;;11.40;99.90;;;;;;4908989;29;20170;-81
2022/09/28 10:48:52;;;;;;;1.17;0.45;;;11.50;99.90;;;;;;4909013;29;20043;-81
2022/09/28 10:51:18;;;;;;;1.48;0.43;;;11.60;99.90;;;;;;4908400;29;20058;-81
2022/09/28 10:54:00;;;;;;;3.17;0.52;;;11.70;99.90;;;;;;4910535;29;20048;-82
2022/09/28 10:56:35;;;;;;;1.15;0.35;;;11.70;99.90;;;;;;4901655;29;20075;-81
2022/09/28 10:59:21;;;;;;;0.98;0.10;;;12.00;99.90;;;;;;4907168;28;20048;-80
2022/09/28 11:01:47;;;;;;;1.35;0.15;;;12.30;99.90;;;;;;4893163;29;20349;-82
2022/09/28 11:04:20;;;;;;;0.47;0.10;;;11.60;99.90;;;;;;4910286;29;20047;-81
2022/09/28 11:06:46;;;;;;;0.52;0.00;;;11.60;99.90;;;;;;4887872;28;20071;-80
2022/09/28 11:09:31;;;;;;;0.20;0.20;;;12.80;99.90;;;;;;4907105;28;20063;-82
2022/09/28 11:11:58;;;;;;;0.38;0.20;;;12.30;99.90;;;;;;4909014;28;20063;-81
2022/09/28 11:14:36;;;;;;;1.00;0.28;;;12.40;99.90;;;;;;4909851;28;20047;-80
2022/09/28 11:17:26;;;;;;;3.28;0.30;;;12.30;99.90;;;;;;4893509;29;20040;-83
2022/09/28 11:19:54;;;;;;;0.55;0.20;;;11.50;99.90;;;;;;4888774;29;20499;-82
2022/09/28 11:22:22;;;;;;;1.73;0.40;;;12.60;99.90;;;;;;4910245;28;20122;-82
2022/09/28 11:24:48;;;;;;;1.00;0.17;;;12.30;99.90;;;;;;4893191;29;20087;-81
2022/09/28 11:27:25;;;;;;;0.45;0.25;;;12.30;99.90;;;;;;4907715;29;20044;-83
2022/09/28 11:29:57;;;;;;;0.65;0.20;;;11.70;99.90;;;;;;4910205;29;20040;-83
2022/09/28 11:32:27;;;;;;;2.22;0.40;;;11.70;99.90;;;;;;4923908;28;20395;-79
2022/09/28 11:34:58;;;;;;;1.65;0.20;;;12.80;99.90;;;;;;4908110;29;20152;-82
2022/09/28 11:37:26;;;;;;;1.10;0.20;;;11.70;99.90;;;;;;4908360;28;20071;-81
2022/09/28 11:40:21;;;;;;;1.42;0.22;;;11.70;99.90;;;;;;4908394;29;20056;-83
2022/09/28 11:43:01;;;;;;;1.50;0.20;;;11.70;99.90;;;;;;4888841;29;20091;-81
2022/09/28 11:45:45;;;;;;;2.35;0.25;;;11.80;99.90;;;;;;4893096;29;20098;-83
2022/09/28 11:48:15;;;;;;;2.72;0.40;;;11.80;99.90;;;;;;4891680;29;20087;-84
2022/09/28 11:51:16;;;;;;;4.22;0.30;;;12.10;99.90;;;;;;4909435;29;20040;-82
2022/09/28 11:53:49;;;;;;;0.73;0.40;;;12.30;99.90;;;;;;4898579;29;20048;-84
2022/09/28 11:56:37;;;;;;;2.05;0.15;;;12.70;99.90;;;;;;4907792;29;20051;-83
2022/09/28 11:59:11;;;;;;;3.15;0.17;;;13.00;99.90;;;;;;4904691;29;20395;-82
2022/09/28 12:01:45;;;;;;;1.30;0.50;;;13.20;99.90;;;;;;4919224;29;20055;-83
2022/09/28 12:04:18;;;;;;;0.52;0.25;;;13.50;99.90;;;;;;4892267;29;20370;-82
2022/09/28 12:06:50;;;;;;;0.82;0.20;;;13.70;99.90;;;;;;4908070;29;20527;-83
2022/09/28 12:09:22;;;;;;;0.93;0.40;;;13.80;99.90;;;;;;4907088;29;20127;-83
2022/09/28 12:11:54;;;;;;;1.67;0.10;;;14.00;99.90;;;;;;4907978;28;20095;-82
2022/09/28 12:14:33;;;;;;;0.65;0.13;;;14.30;99.90;;;;;;4908318;29;20110;-82
2022/09/28 12:17:37;;;;;;;0.70;0.00;;;14.10;99.90;;;;;;4908741;28;20044;-83
2022/09/28 12:20:32;;;;;;;0.43;0.00;;;14.00;99.90;;;;;;4903962;28;20040;-81
2022/09/28 12:22:58;;;;;;;0.03;0.00;;;13.80;99.90;;;;;;4908757;28;20145;-81
2022/09/28 12:25:26;;;;;;;0.32;0.00;;;13.70;99.90;;;;;;4907663;29;20145;-80
2022/09/28 12:27:57;;;;;;;1.50;0.00;;;13.70;99.90;;;;;;4892533;28;20056;-81
2022/09/28 12:30:25;;;;;;;0.88;0.08;;;13.90;99.90;;;;;;4907332;29;20063;-81
2022/09/28 12:33:00;;;;;;;0.10;0.00;;;14.80;99.90;;;;;;4908146;28;20090;-81
2022/09/28 12:35:25;;;;;;;0.75;0.20;;;13.50;99.90;;;;;;4909005;29;20044;-80
2022/09/28 12:38:12;;;;;;;0.30;0.10;;;14.00;99.90;;;;;;4891539;28;20056;-82
2022/09/28 12:40:56;;;;;;;0.90;0.10;;;13.50;99.90;;;;;;4902525;29;20063;-82
2022/09/28 12:43:43;;;;;;;3.97;0.30;;;13.50;99.90;;;;;;4892582;29;20066;-82
2022/09/28 12:46:24;;;;;;;2.80;0.10;;;13.60;99.90;;;;;;4907556;28;20839;-81
2022/09/28 12:49:07;;;;;;;1.35;0.10;;;13.60;99.90;;;;;;4885958;29;20048;-82
2022/09/28 12:51:40;;;;;;;0.30;0.10;;;13.60;99.90;;;;;;4890524;28;20051;-82
2022/09/28 12:54:33;;;;;;;1.00;0.08;;;13.50;99.90;;;;;;4907768;29;20381;-83
2022/09/28 12:57:20;;;;;;;0.28;0.03;;;13.50;99.90;;;;;;4907380;29;20539;-84
2022/09/28 13:00:12;;;;;;;0.77;0.10;;;13.50;99.90;;;;;;4905567;28;20087;-82
2022/09/28 13:02:59;;;;;;;1.05;0.10;;;13.40;99.90;;;;;;4895139;29;20051;-80
2022/09/28 13:05:56;;;;;;;1.05;0.10;;;13.40;99.90;;;;;;4894617;29;20470;-82
2022/09/28 13:08:33;;;;;;;1.20;0.10;;;13.30;99.90;;;;;;4910989;29;20048;-83
2022/09/28 13:11:08;;;;;;;0.98;0.10;;;13.30;99.90;;;;;;4889534;29;20051;-84
2022/09/28 13:13:39;;;;;;;0.20;0.10;;;13.30;99.90;;;;;;4911085;29;20058;-82
2022/09/28 13:16:29;;;;;;;1.25;0.10;;;13.40;99.90;;;;;;4910700;29;20079;-83
2022/09/28 13:19:40;;;;;;;0.95;0.10;;;13.60;99.90;;;;;;4922491;28;20054;-82
2022/09/28 13:22:34;;;;;;;0.52;0.15;;;13.70;99.90;;;;;;4921897;28;20142;-83
2022/09/28 13:25:05;;;;;;;1.65;0.08;;;14.00;99.90;;;;;;4905714;29;20127;-83
2022/09/28 13:27:39;;;;;;;1.05;0.15;;;14.10;99.90;;;;;;4909627;29;20055;-82
2022/09/28 13:30:06;;;;;;;0.75;0.13;;;14.40;99.90;;;;;;4894658;29;20088;-83